createdAt,value
2022-11-19T00:02:17.988Z,11.50
2022-11-19T00:07:10.323Z,12.43
2022-11-19T00:12:20.834Z,14.80
2022-11-19T00:17:12.949Z,13.90
2022-11-19T00:22:07.695Z,14.83
2022-11-19T00:26:59.885Z,16.27
2022-11-19T00:31:52.050Z,13.67
2022-11-19T00:36:44.145Z,16.57
2022-11-19T00:41:36.284Z,19.77
2022-11-19T00:46:31.773Z,14.70
2022-11-19T00:51:26.088Z,14.43
2022-11-19T00:56:21.225Z,14.80
2022-11-19T01:01:15.351Z,14.80
2022-11-19T01:06:13.231Z,11.97
2022-11-19T01:11:14.185Z,15.67
2022-11-19T01:16:10.882Z,15.20
2022-11-19T01:21:04.573Z,17.33
2022-11-19T01:25:56.829Z,15.80
2022-11-19T01:30:48.957Z,12.17
2022-11-19T01:35:41.320Z,13.00
2022-11-19T01:40:34.059Z,14.60
2022-11-19T01:45:37.222Z,15.90
2022-11-19T01:50:33.240Z,13.73
2022-11-19T01:55:26.704Z,13.93
2022-11-19T02:05:59.358Z,13.83
2022-11-19T02:11:06.862Z,14.50
2022-11-19T02:16:11.703Z,14.03
2022-11-19T02:21:31.404Z,15.13
2022-11-19T02:27:15.278Z,16.17
2022-11-19T02:32:21.486Z,19.23
2022-11-19T02:37:37.299Z,16.93
2022-11-19T02:42:49.668Z,19.57
2022-11-19T02:47:48.044Z,17.90
2022-11-19T02:52:42.970Z,17.10
2022-11-19T02:57:36.456Z,18.63
2022-11-19T03:02:56.028Z,15.70
2022-11-19T03:07:48.986Z,17.43
2022-11-19T03:12:53.511Z,17.23
2022-11-19T03:17:52.242Z,26.67
2022-11-19T03:22:59.142Z,20.30
2022-11-19T03:27:55.755Z,21.03
2022-11-19T03:33:00.960Z,21.73
2022-11-19T03:37:57.513Z,20.73
2022-11-19T03:42:53.521Z,24.60
2022-11-19T03:47:48.951Z,19.33
2022-11-19T03:52:43.233Z,17.30
2022-11-19T03:57:35.382Z,15.23
2022-11-19T04:02:27.541Z,21.37
2022-11-19T04:07:22.258Z,16.97
2022-11-19T04:12:21.033Z,16.23
2022-11-19T04:17:13.662Z,16.13
2022-11-19T04:22:05.747Z,16.80
2022-11-19T04:26:58.066Z,17.67
2022-11-19T04:31:50.451Z,15.80
2022-11-19T04:36:42.709Z,16.77
2022-11-19T04:41:35.385Z,16.37
2022-11-19T04:46:27.496Z,21.77
2022-11-19T04:51:19.621Z,19.30
2022-11-19T04:56:11.760Z,16.13
2022-11-19T05:01:04.025Z,19.10
2022-11-19T05:05:56.251Z,16.83
2022-11-19T05:10:48.412Z,17.80
2022-11-19T05:15:40.564Z,16.53
2022-11-19T05:20:32.722Z,15.00
2022-11-19T05:25:24.960Z,23.77
2022-11-19T05:30:17.593Z,20.60
2022-11-19T05:35:10.036Z,22.53
2022-11-19T05:40:02.177Z,19.10
2022-11-19T05:44:54.320Z,18.47
2022-11-19T05:49:46.450Z,17.20
2022-11-19T05:54:38.654Z,17.67
2022-11-19T05:59:30.788Z,19.73
2022-11-19T06:04:22.902Z,27.97
2022-11-19T06:09:15.244Z,18.77
2022-11-19T06:14:07.474Z,19.37
2022-11-19T06:18:59.594Z,18.97
2022-11-19T06:23:51.695Z,19.27
2022-11-19T06:28:43.839Z,21.83
2022-11-19T06:33:35.925Z,18.37
2022-11-19T06:38:28.046Z,21.20
2022-11-19T06:43:20.162Z,19.50
2022-11-19T06:48:12.317Z,17.33
2022-11-19T06:53:04.425Z,19.20
2022-11-19T06:57:57.811Z,18.87
2022-11-19T07:02:49.908Z,20.43
2022-11-19T07:07:42.041Z,19.13
2022-11-19T07:12:34.503Z,33.73
2022-11-19T07:17:26.563Z,36.00
2022-11-19T07:22:18.650Z,48.37
2022-11-19T07:27:11.035Z,42.17
2022-11-19T07:32:03.071Z,31.53
2022-11-19T07:36:55.541Z,25.77
2022-11-19T07:42:06.048Z,28.43
2022-11-19T07:46:58.972Z,13.47
2022-11-19T07:51:51.225Z,10.73
2022-11-19T07:56:44.945Z,15.73
2022-11-19T08:01:37.732Z,15.03
2022-11-19T08:06:30.332Z,11.57
2022-11-19T08:11:23.342Z,22.17
2022-11-19T08:16:38.067Z,14.03
2022-11-19T08:21:30.231Z,16.63
2022-11-19T08:26:22.905Z,16.00
2022-11-19T08:31:14.984Z,13.70
2022-11-19T08:36:07.378Z,14.00
2022-11-19T08:41:18.066Z,15.07
2022-11-19T08:46:10.213Z,13.03
2022-11-19T08:51:07.089Z,12.10
2022-11-19T08:55:59.271Z,12.77
2022-11-19T09:00:51.843Z,11.87
2022-11-19T09:05:44.212Z,10.70
2022-11-19T09:10:37.909Z,13.10
2022-11-19T09:15:30.068Z,14.87
2022-11-19T09:20:22.245Z,12.97
2022-11-19T09:25:14.686Z,12.77
2022-11-19T09:30:07.737Z,13.13
2022-11-19T09:34:59.994Z,12.30
2022-11-19T09:39:52.153Z,12.83
2022-11-19T09:44:44.240Z,13.03
2022-11-19T09:49:59.691Z,16.60
2022-11-19T09:54:56.722Z,11.37
2022-11-19T09:59:52.156Z,12.97
2022-11-19T10:04:45.866Z,13.63
2022-11-19T10:10:06.466Z,13.00
2022-11-19T10:15:06.924Z,13.27
2022-11-19T10:20:23.035Z,14.20
2022-11-19T10:25:19.214Z,12.87
2022-11-19T10:30:17.509Z,13.50
2022-11-19T10:35:17.311Z,13.97
2022-11-19T10:40:18.728Z,13.17
2022-11-19T10:45:27.189Z,14.07
2022-11-19T10:50:24.036Z,12.03
2022-11-19T10:55:33.024Z,12.80
2022-11-19T11:00:25.552Z,13.37
2022-11-19T11:05:19.078Z,13.33
2022-11-19T11:10:36.515Z,12.17
2022-11-19T11:15:29.018Z,12.33
2022-11-19T11:20:27.392Z,11.57
2022-11-19T11:25:27.609Z,12.50
2022-11-19T11:30:20.050Z,11.13
2022-11-19T11:35:36.171Z,13.73
2022-11-19T11:40:31.875Z,7.77
2022-11-19T11:45:34.164Z,10.07
2022-11-19T11:50:28.515Z,8.80
2022-11-19T11:55:23.815Z,7.47
2022-11-19T12:00:38.491Z,8.23
2022-11-19T12:06:12.367Z,3.97
2022-11-19T12:11:24.870Z,9.27
2022-11-19T12:16:47.650Z,8.30
2022-11-19T12:22:00.090Z,8.10
2022-11-19T12:27:03.889Z,11.30
2022-11-19T12:32:14.097Z,8.83
2022-11-19T12:37:20.260Z,8.00
2022-11-19T12:42:12.349Z,9.83
2022-11-19T12:47:13.140Z,8.53
2022-11-19T12:52:35.128Z,9.80
2022-11-19T12:57:48.017Z,8.50
2022-11-19T13:03:08.043Z,9.47
2022-11-19T13:08:13.297Z,9.97
2022-11-19T13:13:11.170Z,8.47
2022-11-19T13:18:08.609Z,7.73
2022-11-19T13:23:05.557Z,6.87
2022-11-19T13:28:03.215Z,6.53
2022-11-19T13:33:10.458Z,5.87
2022-11-19T13:38:23.255Z,8.13
2022-11-19T13:43:40.933Z,6.40
2022-11-19T13:48:41.554Z,7.70
2022-11-19T13:53:42.385Z,9.53
2022-11-19T13:58:44.748Z,8.90
2022-11-19T14:03:50.307Z,9.90
2022-11-19T14:09:00.305Z,10.97
2022-11-19T14:14:38.447Z,11.43
2022-11-19T14:20:15.643Z,8.47
2022-11-19T14:25:40.532Z,8.03
2022-11-19T14:31:04.777Z,9.97
2022-11-19T14:36:24.207Z,9.27
2022-11-19T14:41:30.156Z,9.93
2022-11-19T14:46:29.604Z,11.67
2022-11-19T14:51:55.436Z,10.03
2022-11-19T14:57:03.783Z,9.37
2022-11-19T15:02:25.151Z,9.97
2022-11-19T15:07:55.929Z,11.00
2022-11-19T15:13:04.391Z,9.13
2022-11-19T15:18:07.134Z,14.20
2022-11-19T15:23:19.202Z,18.33
2022-11-19T15:28:41.130Z,21.63
2022-11-19T15:33:55.026Z,18.13
2022-11-19T15:39:09.196Z,12.67
2022-11-19T15:44:11.578Z,15.67
2022-11-19T15:49:26.654Z,10.90
2022-11-19T15:54:26.643Z,14.37
2022-11-19T15:59:20.889Z,18.30
2022-11-19T16:04:17.820Z,25.60
2022-11-19T16:09:19.190Z,17.20
2022-11-19T16:14:42.097Z,18.27
2022-11-19T16:19:35.882Z,17.23
2022-11-19T16:24:49.136Z,14.70
2022-11-19T16:29:48.378Z,16.37
2022-11-19T16:34:40.724Z,15.67
2022-11-19T16:39:34.081Z,16.73
2022-11-19T16:44:29.887Z,23.07
2022-11-19T16:49:46.529Z,23.27
2022-11-19T16:54:48.586Z,17.93
2022-11-19T16:59:40.980Z,19.30
2022-11-19T17:04:33.847Z,47.13
2022-11-19T17:09:47.946Z,32.57
2022-11-19T17:14:39.977Z,33.10
2022-11-19T17:19:36.240Z,24.70
2022-11-19T17:24:44.140Z,31.33
2022-11-19T17:29:39.414Z,20.07
2022-11-19T17:34:33.620Z,28.87
2022-11-19T17:39:26.049Z,21.43
2022-11-19T17:44:36.098Z,16.17
2022-11-19T17:49:28.297Z,15.47
2022-11-19T17:54:22.905Z,13.53
2022-11-19T17:59:15.211Z,15.50
2022-11-19T18:04:09.737Z,16.20
2022-11-19T18:09:02.297Z,18.20
2022-11-19T18:14:00.803Z,19.00
2022-11-19T18:18:53.303Z,39.83
2022-11-19T18:23:46.351Z,22.07
2022-11-19T18:28:43.750Z,22.27
2022-11-19T18:33:39.094Z,24.77
2022-11-19T18:38:33.557Z,26.80
2022-11-19T18:43:44.744Z,41.00
2022-11-19T18:48:37.996Z,36.57
2022-11-19T18:53:30.112Z,33.67
2022-11-19T18:58:22.298Z,24.53
2022-11-19T19:03:16.228Z,28.63
2022-11-19T19:08:09.542Z,25.50
2022-11-19T19:13:01.602Z,22.47
2022-11-19T19:17:53.767Z,24.47
2022-11-19T19:22:45.890Z,22.83
2022-11-19T19:27:38.006Z,71.87
2022-11-19T19:32:32.861Z,33.20
2022-11-19T19:37:24.994Z,29.00
2022-11-19T19:42:17.506Z,26.93
2022-11-19T19:47:15.406Z,27.67
2022-11-19T19:52:07.578Z,24.53
2022-11-19T19:56:59.668Z,68.47
2022-11-19T20:01:53.255Z,56.90
2022-11-19T20:06:47.231Z,51.70
2022-11-19T20:11:39.664Z,63.10
2022-11-19T20:16:32.989Z,64.30
2022-11-19T20:21:31.661Z,73.70
2022-11-19T20:26:28.326Z,58.20
2022-11-19T20:31:23.740Z,32.77
2022-11-19T20:36:18.451Z,36.00
2022-11-19T20:41:31.939Z,31.23
2022-11-19T20:46:24.144Z,31.47
2022-11-19T20:51:16.446Z,32.07
2022-11-19T20:56:08.924Z,32.33
2022-11-19T21:01:03.664Z,36.57
2022-11-19T21:05:58.914Z,34.83
2022-11-19T21:11:06.242Z,34.20
2022-11-19T21:15:59.376Z,31.87
2022-11-19T21:20:52.344Z,35.93
2022-11-19T21:25:44.519Z,31.50
2022-11-19T21:30:36.770Z,33.77
2022-11-19T21:35:29.589Z,34.03
2022-11-19T21:40:22.676Z,41.53
2022-11-19T21:45:15.881Z,35.23
2022-11-19T21:50:09.490Z,40.27
2022-11-19T21:55:04.809Z,38.23
2022-11-19T21:59:56.957Z,36.13
2022-11-19T22:04:49.094Z,34.83
2022-11-19T22:09:41.218Z,41.10
2022-11-19T22:14:33.386Z,110.37
2022-11-19T22:19:25.442Z,119.73
2022-11-19T22:24:18.248Z,109.37
2022-11-19T22:29:10.479Z,115.17
2022-11-19T22:34:02.733Z,71.90
2022-11-19T22:38:54.826Z,38.63
2022-11-19T22:43:47.584Z,36.30
2022-11-19T22:48:43.090Z,35.40
2022-11-19T22:53:36.922Z,31.40
2022-11-19T22:58:29.684Z,39.70
2022-11-19T23:03:23.060Z,35.40
2022-11-19T23:08:15.227Z,52.20
2022-11-19T23:13:28.258Z,35.47
2022-11-19T23:18:20.348Z,33.27
2022-11-19T23:23:12.519Z,42.73
2022-11-19T23:28:04.820Z,39.33
2022-11-19T23:32:56.976Z,44.00
2022-11-19T23:37:49.078Z,28.10
2022-11-19T23:42:41.180Z,34.60
2022-11-19T23:47:37.145Z,32.47
2022-11-19T23:52:29.285Z,53.43
2022-11-19T23:57:21.444Z,78.30
